Time;durP1;ratioP1;P1;durP2;ratioP2;P2;SDS_P1;SDS_P2;PMS_P1;PMS_P2;Temp;Humidity;BMP_temperature;BMP_pressure;BME280_temperature;BME280_humidity;BME280_pressure;Samples;Min_cycle;Max_cycle;Signal;HPM_P1;HPM_P2
2021/12/15 02:02:56;663194.00;2.21;1143.47;0.00;0.00;0.62;;;;;10.60;1.00;;;;;;2283673;61;984;-90
2021/12/15 03:22:22;659203.00;2.20;1136.56;0.00;0.00;0.62;;;;;11.00;1.00;;;;;;2283519;61;1023;-91
2021/12/15 03:24:50;153613.00;0.51;266.03;0.00;0.00;0.62;;;;;11.20;1.00;;;;;;2281409;61;455;-88
2021/12/15 04:01:51;838401.00;2.79;1448.18;36627.00;0.12;64.05;;;;;10.70;1.00;;;;;;2508416;40;1922;31
2021/12/15 05:08:23;757499.00;2.52;1307.10;0.00;0.00;0.62;;;;;11.30;1.00;;;;;;2511887;40;1894;31
2021/12/15 07:21:54;402314.00;1.34;693.78;0.00;0.00;0.62;;;;;11.10;1.00;;;;;;2286824;60;1388;-88
2021/12/15 07:24:21;24661.00;0.08;43.34;0.00;0.00;0.62;;;;;11.00;1.00;;;;;;2284856;60;909;-90
2021/12/15 07:26:48;8120.00;0.03;14.69;0.00;0.00;0.62;;;;;11.10;1.00;;;;;;2280320;61;1106;-89
2021/12/15 07:51:38;172995.00;0.58;299.43;0.00;0.00;0.62;;;;;10.90;1.00;;;;;;2321532;40;1914;-86
2021/12/15 08:03:57;96209.00;0.32;167.03;0.00;0.00;0.62;;;;;10.80;1.00;;;;;;2278160;61;1234;-87
2021/12/15 08:06:25;76952.00;0.26;133.77;0.00;0.00;0.62;;;;;10.80;1.00;;;;;;2276721;61;933;-87
2021/12/15 08:08:54;19570.00;0.07;34.53;0.00;0.00;0.62;;;;;10.70;1.00;;;;;;2276748;61;1453;-88
2021/12/15 08:11:21;40567.00;0.14;70.87;0.00;0.00;0.62;;;;;10.70;1.00;;;;;;2269667;61;1118;-88
2021/12/15 08:13:48;69320.00;0.23;120.59;0.00;0.00;0.62;;;;;10.80;1.00;;;;;;2276708;61;1981;-88
2021/12/15 08:16:16;24564.00;0.08;43.17;0.00;0.00;0.62;;;;;10.80;1.00;;;;;;2276690;61;984;-88
2021/12/15 08:18:43;45382.00;0.15;79.20;0.00;0.00;0.62;;;;;10.50;1.00;;;;;;2269549;61;1484;-87
2021/12/15 08:21:10;107565.00;0.36;186.63;0.00;0.00;0.62;;;;;10.50;1.00;;;;;;2276678;61;991;-88
2021/12/15 08:23:37;10430.00;0.03;18.69;0.00;0.00;0.62;;;;;10.60;1.00;;;;;;2272701;61;1018;-88
2021/12/15 08:28:33;379032.00;1.26;653.76;0.00;0.00;0.62;;;;;10.60;1.00;;;;;;2278699;61;1314;-89
2021/12/15 08:31:01;38572.00;0.13;67.42;0.00;0.00;0.62;;;;;10.60;1.00;;;;;;2270114;61;939;-88
2021/12/15 08:53:14;266387.00;0.89;460.13;0.00;0.00;0.62;;;;;10.30;1.00;;;;;;2278849;61;1941;-90
2021/12/15 09:15:31;388610.00;1.30;670.23;0.00;0.00;0.62;;;;;11.30;1.00;;;;;;2274929;61;1338;-90
2021/12/15 10:10:41;569399.00;1.90;981.41;0.00;0.00;0.62;;;;;12.10;1.00;;;;;;2504570;55;2027;31
2021/12/15 11:44:12;704425.00;2.35;1214.91;0.00;0.00;0.62;;;;;11.30;1.00;;;;;;2503645;40;1936;31
2021/12/15 11:56:36;456687.00;1.52;787.29;0.00;0.00;0.62;;;;;10.70;1.00;;;;;;2275182;61;971;-92
2021/12/15 12:26:16;608785.00;2.03;1049.39;0.00;0.00;0.62;;;;;11.50;1.00;;;;;;2283040;61;992;-91
2021/12/15 12:36:10;495373.00;1.65;853.86;0.00;0.00;0.62;;;;;12.10;1.00;;;;;;2282790;61;1001;-90
2021/12/15 13:40:53;413347.00;1.38;712.75;0.00;0.00;0.62;;;;;11.00;1.00;;;;;;2282945;61;964;-92
2021/12/15 13:45:51;446837.00;1.49;770.34;0.00;0.00;0.62;;;;;11.60;1.00;;;;;;2517023;55;2039;31
2021/12/15 14:20:23;651988.00;2.17;1124.08;91187.00;0.30;158.36;;;;;11.60;1.00;;;;;;2270563;61;1308;-92
2021/12/15 15:42:06;550062.00;1.83;948.07;0.00;0.00;0.62;;;;;9.40;1.00;;;;;;2283363;61;965;-93
2021/12/15 17:47:56;1262348.00;4.21;2203.36;0.00;0.00;0.62;;;;;11.40;1.00;;;;;;2282688;61;1010;-90
2021/12/15 17:52:54;690671.00;2.30;1191.06;0.00;0.00;0.62;;;;;11.50;1.00;;;;;;2282675;61;1948;-91
2021/12/15 18:20:07;451463.00;1.50;778.30;98043.00;0.33;170.19;;;;;11.70;1.00;;;;;;2286991;60;1298;-89
2021/12/15 18:22:34;357608.00;1.19;616.94;78009.00;0.26;135.60;;;;;11.60;1.00;;;;;;2285273;60;1003;-89
2021/12/15 18:25:01;346005.00;1.15;596.99;97732.00;0.33;169.66;;;;;12.00;1.00;;;;;;2276598;61;1010;-88
2021/12/15 18:27:28;261583.00;0.87;451.87;94743.00;0.32;164.50;;;;;12.10;1.00;;;;;;2276669;61;1051;-89
2021/12/15 18:29:56;393949.00;1.31;679.40;90078.00;0.30;156.44;;;;;11.80;1.00;;;;;;2276571;61;1346;-89
2021/12/15 18:32:24;636926.00;2.12;1098.02;87636.00;0.29;152.23;;;;;11.70;1.00;;;;;;2276614;61;1031;-89
2021/12/15 18:34:56;271823.00;0.91;469.48;87063.00;0.29;151.24;;;;;11.70;1.00;;;;;;2276639;61;1997;-87
2021/12/15 18:37:30;304945.00;1.02;526.42;88504.00;0.30;153.72;;;;;11.60;1.00;;;;;;2272477;61;935;-88
2021/12/15 18:39:59;512646.00;1.71;883.60;90717.00;0.30;157.55;;;;;11.70;1.00;;;;;;2272546;61;1373;-90
2021/12/15 18:42:29;621041.00;2.07;1070.56;88882.00;0.30;154.38;;;;;11.60;1.00;;;;;;2269307;61;977;-89
2021/12/15 18:45:00;554128.00;1.85;955.08;93093.00;0.31;161.65;;;;;11.70;1.00;;;;;;2272494;61;1053;-90
2021/12/15 18:47:28;556582.00;1.86;959.31;72751.00;0.24;126.51;;;;;11.50;1.00;;;;;;2260305;61;984;-90
2021/12/15 18:50:02;486944.00;1.62;839.35;0.00;0.00;0.62;;;;;11.30;1.00;;;;;;2260447;61;1365;-90
2021/12/15 18:52:31;258420.00;0.86;446.43;0.00;0.00;0.62;;;;;11.00;1.00;;;;;;2256302;61;955;-90
2021/12/15 18:54:59;414263.00;1.38;714.33;0.00;0.00;0.62;;;;;11.20;1.00;;;;;;2258257;61;2005;-88
2021/12/15 18:57:28;3909867.00;13.03;8567.36;32725.00;0.11;57.30;;;;;11.00;1.00;;;;;;2260835;61;975;-90
2021/12/15 19:05:00;768494.00;2.56;1326.23;0.00;0.00;0.62;;;;;10.80;1.00;;;;;;2282564;61;1309;-87
2021/12/15 19:12:25;1178118.00;3.93;2050.71;0.00;0.00;0.62;;;;;10.90;1.00;;;;;;2298236;39;2140;-87
2021/12/15 19:17:21;524227.00;1.75;903.55;0.00;0.00;0.62;;;;;10.90;1.00;;;;;;2282773;61;1420;-87
2021/12/15 19:24:53;1039148.00;3.46;1801.93;0.00;0.00;0.62;;;;;9.50;1.00;;;;;;2282918;61;1237;-89
2021/12/15 19:27:20;685738.00;2.29;1182.52;32856.00;0.11;57.53;;;;;9.70;1.00;;;;;;2280976;61;1021;-90
2021/12/15 19:32:18;597180.00;1.99;1029.35;0.00;0.00;0.62;;;;;9.50;1.00;;;;;;2278242;61;1538;-89
2021/12/15 19:34:46;428431.00;1.43;738.69;0.00;0.00;0.62;;;;;10.00;1.00;;;;;;2276118;61;2009;-88
2021/12/15 19:37:16;380989.00;1.27;657.13;0.00;0.00;0.62;;;;;10.20;1.00;;;;;;2276874;61;1029;-89
2021/12/15 19:39:43;409819.00;1.37;706.69;0.00;0.00;0.62;;;;;10.50;1.00;;;;;;2276262;61;1419;-88
2021/12/15 19:42:11;425737.00;1.42;734.05;0.00;0.00;0.62;;;;;10.70;1.00;;;;;;2268166;61;947;-88
2021/12/15 19:44:39;458021.00;1.53;789.58;0.00;0.00;0.62;;;;;10.80;1.00;;;;;;2264236;61;1073;-87
2021/12/15 19:47:08;501438.00;1.67;864.30;0.00;0.00;0.62;;;;;10.60;1.00;;;;;;2264315;61;1024;-87
2021/12/15 19:49:38;277052.00;0.92;478.47;0.00;0.00;0.62;;;;;10.60;1.00;;;;;;2260129;61;1506;-88
2021/12/15 19:52:06;202702.00;0.68;350.57;0.00;0.00;0.62;;;;;10.70;1.00;;;;;;2253580;61;1014;-89
2021/12/15 19:54:34;203842.00;0.68;352.54;0.00;0.00;0.62;;;;;10.50;1.00;;;;;;2260226;61;1914;-87
2021/12/15 19:57:01;486651.00;1.62;838.84;0.00;0.00;0.62;;;;;10.60;1.00;;;;;;2256784;61;1077;-88
2021/12/15 19:59:30;251800.00;0.84;435.05;0.00;0.00;0.62;;;;;10.60;1.00;;;;;;2260172;61;1458;-87
2021/12/15 20:02:02;397783.00;1.33;685.99;0.00;0.00;0.62;;;;;10.30;1.00;;;;;;2261670;61;1029;-90
2021/12/15 20:04:32;203639.00;0.68;352.19;0.00;0.00;0.62;;;;;9.20;1.00;;;;;;2260182;61;944;-90
2021/12/15 20:07:03;199810.00;0.67;345.60;0.00;0.00;0.62;;;;;8.30;1.00;;;;;;2261882;61;1035;-89
2021/12/15 20:09:34;224242.00;0.75;387.64;0.00;0.00;0.62;;;;;8.30;1.00;;;;;;2268216;61;1469;-89
2021/12/15 20:12:06;21231.00;0.07;37.40;0.00;0.00;0.62;;;;;7.80;1.00;;;;;;2268215;61;1011;-89
2021/12/15 20:14:34;115968.00;0.39;201.13;0.00;0.00;0.62;;;;;7.60;1.00;;;;;;2268195;61;1906;-89
2021/12/15 20:17:05;111034.00;0.37;192.61;0.00;0.00;0.62;;;;;7.60;1.00;;;;;;2268109;61;1020;-89
2021/12/15 20:19:32;73119.00;0.24;127.15;0.00;0.00;0.62;;;;;7.40;1.00;;;;;;2264756;61;1391;-89
2021/12/15 20:22:02;135629.00;0.45;235.04;0.00;0.00;0.62;;;;;7.30;1.00;;;;;;2270374;61;1056;-88
2021/12/15 20:24:31;31771.00;0.11;55.65;0.00;0.00;0.62;;;;;7.00;2.00;;;;;;2272198;61;1063;-89
2021/12/15 20:27:04;139703.00;0.47;242.06;0.00;0.00;0.62;;;;;7.30;1.90;;;;;;2265545;61;992;-91
2021/12/15 20:29:31;24025.00;0.08;42.24;0.00;0.00;0.62;;;;;7.80;1.70;;;;;;2265525;61;1477;-87
2021/12/15 20:32:03;158159.00;0.53;273.87;0.00;0.00;0.62;;;;;8.60;1.00;;;;;;2267834;61;1051;-90
2021/12/15 20:34:30;104828.00;0.35;181.90;0.00;0.00;0.62;;;;;8.70;1.00;;;;;;2260077;61;1996;-88
2021/12/15 20:36:58;15073.00;0.05;26.74;0.00;0.00;0.62;;;;;8.60;1.00;;;;;;2260047;61;1083;-89
2021/12/15 20:39:26;87986.00;0.29;152.83;0.00;0.00;0.62;;;;;8.70;1.00;;;;;;2252006;61;1384;-91
2021/12/15 20:41:53;54103.00;0.18;94.28;0.00;0.00;0.62;;;;;8.30;1.00;;;;;;2246410;61;1083;-89
2021/12/15 20:44:20;199408.00;0.66;344.90;0.00;0.00;0.62;;;;;8.60;1.00;;;;;;2255983;61;1053;-88
2021/12/15 20:46:49;0.00;0.00;0.62;0.00;0.00;0.62;;;;;9.10;1.00;;;;;;2255991;61;1080;-89
2021/12/15 20:49:16;187640.00;0.63;324.65;0.00;0.00;0.62;;;;;9.40;1.00;;;;;;2253420;61;1309;-89
2021/12/15 20:51:44;80684.00;0.27;140.22;0.00;0.00;0.62;;;;;9.60;1.00;;;;;;2261053;61;946;-89
2021/12/15 20:54:11;55991.00;0.19;97.55;0.00;0.00;0.62;;;;;9.30;1.00;;;;;;2268011;61;2010;-90
2021/12/15 20:56:41;26800.00;0.09;47.04;0.00;0.00;0.62;;;;;9.60;1.00;;;;;;2262536;61;978;-89
2021/12/15 20:59:09;65250.00;0.22;113.55;0.00;0.00;0.62;;;;;9.90;1.00;;;;;;2275656;61;1347;-89
2021/12/15 21:01:38;100341.00;0.33;174.16;0.00;0.00;0.62;;;;;10.00;1.00;;;;;;2276184;61;1747;-88
2021/12/15 21:04:08;160485.00;0.53;277.87;0.00;0.00;0.62;;;;;10.10;1.00;;;;;;2276235;61;987;-89
2021/12/15 21:06:39;16832.00;0.06;29.78;0.00;0.00;0.62;;;;;10.20;1.00;;;;;;2276226;61;1036;-90
2021/12/15 21:09:10;121404.00;0.40;210.50;0.00;0.00;0.62;;;;;10.30;1.00;;;;;;2275387;61;1381;-89
2021/12/15 21:11:41;210957.00;0.70;364.78;0.00;0.00;0.62;;;;;9.70;1.00;;;;;;2272544;61;1073;-88
2021/12/15 21:14:12;158798.00;0.53;274.97;0.00;0.00;0.62;;;;;9.50;1.00;;;;;;2272542;61;1982;-90
2021/12/15 21:16:43;122537.00;0.41;212.46;0.00;0.00;0.62;;;;;9.10;1.00;;;;;;2272540;61;979;-89
2021/12/15 21:19:13;51408.00;0.17;89.62;0.00;0.00;0.62;;;;;9.20;1.00;;;;;;2272379;61;1365;-88
2021/12/15 21:21:42;281239.00;0.94;485.67;0.00;0.00;0.62;;;;;9.60;1.00;;;;;;2272562;61;1021;-87
2021/12/15 21:24:10;239205.00;0.80;413.38;0.00;0.00;0.62;;;;;9.90;1.00;;;;;;2272447;61;1627;-90
2021/12/15 21:26:40;141261.00;0.47;244.74;0.00;0.00;0.62;;;;;10.00;1.00;;;;;;2272267;61;1054;-88
2021/12/15 21:29:09;197108.00;0.66;340.95;0.00;0.00;0.62;;;;;10.20;1.00;;;;;;2272021;61;1322;-89
2021/12/15 21:31:38;220933.00;0.74;381.95;9614.00;0.03;17.28;;;;;10.20;1.00;;;;;;2272498;61;1053;-88
2021/12/15 21:34:05;288048.00;0.96;497.37;0.00;0.00;0.62;;;;;10.20;1.00;;;;;;2272500;61;1909;-90
2021/12/15 21:36:32;193209.00;0.64;334.23;22545.00;0.08;39.68;;;;;10.20;1.00;;;;;;2272428;61;1750;-90
2021/12/15 21:38:59;87848.00;0.29;152.59;0.00;0.00;0.62;;;;;10.00;1.00;;;;;;2276158;61;1305;-90
2021/12/15 21:41:29;133972.00;0.45;232.18;0.00;0.00;0.62;;;;;9.70;1.00;;;;;;2276552;61;1027;-90
2021/12/15 21:44:01;381158.00;1.27;657.42;52255.00;0.17;91.09;;;;;9.60;1.00;;;;;;2277320;61;888;-91
2021/12/15 21:46:32;18903.00;0.06;33.37;0.00;0.00;0.62;;;;;9.30;1.00;;;;;;2277268;61;1650;-91
2021/12/15 21:49:01;28584.00;0.10;50.13;0.00;0.00;0.62;;;;;9.20;1.00;;;;;;2277134;61;1671;-90
2021/12/15 21:51:28;34728.00;0.12;60.77;0.00;0.00;0.62;;;;;8.60;1.00;;;;;;2277255;61;1537;-90
2021/12/15 21:53:55;299789.00;1.00;517.56;0.00;0.00;0.62;;;;;7.80;1.00;;;;;;2277118;61;2010;-90
2021/12/15 21:56:23;179783.00;0.60;311.12;0.00;0.00;0.62;;;;;7.50;1.00;;;;;;2277263;61;1054;-91
2021/12/15 21:58:51;269263.00;0.90;465.08;0.00;0.00;0.62;;;;;7.80;1.00;;;;;;2277045;61;1582;-89
2021/12/15 22:01:20;136172.00;0.45;235.97;0.00;0.00;0.62;;;;;8.50;1.00;;;;;;2277225;61;1669;-89
2021/12/15 22:03:48;45443.00;0.15;79.30;0.00;0.00;0.62;;;;;8.70;1.00;;;;;;2277205;61;1698;-90
2021/12/15 22:06:18;173557.00;0.58;300.39;0.00;0.00;0.62;;;;;9.00;1.00;;;;;;2277135;61;1561;-89
2021/12/15 22:08:49;141391.00;0.47;244.97;0.00;0.00;0.62;;;;;9.40;1.00;;;;;;2277118;61;1575;-89
2021/12/15 22:11:20;76132.00;0.25;132.36;0.00;0.00;0.62;;;;;9.70;1.00;;;;;;2277167;61;976;-89
2021/12/15 22:13:50;178505.00;0.60;308.92;0.00;0.00;0.62;;;;;10.00;1.00;;;;;;2277213;61;1005;-89
2021/12/15 22:16:20;50986.00;0.17;88.89;0.00;0.00;0.62;;;;;10.00;1.00;;;;;;2277136;61;1915;-88
2021/12/15 22:18:52;117285.00;0.39;203.40;0.00;0.00;0.62;;;;;10.20;1.00;;;;;;2277102;61;1654;-89
2021/12/15 22:21:30;58427.00;0.19;101.76;0.00;0.00;0.62;;;;;10.00;1.00;;;;;;2264506;61;915;-88
2021/12/15 22:24:03;189456.00;0.63;327.77;0.00;0.00;0.62;;;;;10.20;1.00;;;;;;2264467;61;1701;-90
2021/12/15 22:26:31;98539.00;0.33;171.05;0.00;0.00;0.62;;;;;10.10;1.00;;;;;;2264490;61;1641;-88
2021/12/15 22:29:01;83484.00;0.28;145.06;0.00;0.00;0.62;;;;;10.20;1.00;;;;;;2264433;61;1622;-89
2021/12/15 22:31:34;108037.00;0.36;187.44;0.00;0.00;0.62;;;;;9.80;1.00;;;;;;2264487;61;1159;-89
2021/12/15 22:34:01;118902.00;0.40;206.19;52181.00;0.17;90.96;;;;;9.90;1.00;;;;;;2264611;61;1007;-89
2021/12/15 22:36:29;222687.00;0.74;384.97;0.00;0.00;0.62;;;;;9.90;1.00;;;;;;2264581;61;1932;-89
2021/12/15 22:38:56;68939.00;0.23;119.93;0.00;0.00;0.62;;;;;10.00;1.00;;;;;;2268312;61;1338;-89
2021/12/15 22:41:23;34824.00;0.12;60.93;0.00;0.00;0.62;;;;;10.00;1.00;;;;;;2277003;61;1735;-89
2021/12/15 22:43:51;138035.00;0.46;239.18;0.00;0.00;0.62;;;;;10.10;1.00;;;;;;2276976;61;1140;-88
2021/12/15 22:46:20;251901.00;0.84;435.22;0.00;0.00;0.62;;;;;10.40;1.00;;;;;;2277057;61;1807;-90
2021/12/15 22:48:48;60360.00;0.20;105.10;0.00;0.00;0.62;;;;;10.30;1.00;;;;;;2277033;61;1317;-90
2021/12/15 22:51:17;53889.00;0.18;93.91;0.00;0.00;0.62;;;;;10.20;1.00;;;;;;2277112;61;1039;-90
2021/12/15 22:53:45;9916.00;0.03;17.80;0.00;0.00;0.62;;;;;10.10;1.00;;;;;;2268240;61;949;-89
2021/12/15 22:56:12;20144.00;0.07;35.52;0.00;0.00;0.62;;;;;10.10;1.00;;;;;;2268491;61;2018;-89
2021/12/15 22:58:39;12139.00;0.04;21.65;0.00;0.00;0.62;;;;;9.50;1.00;;;;;;2268512;61;1372;-88
2021/12/15 23:01:13;56637.00;0.19;98.66;0.00;0.00;0.62;;;;;9.00;1.00;;;;;;2267787;61;1025;-89
2021/12/15 23:03:40;37120.00;0.12;64.91;0.00;0.00;0.62;;;;;8.90;1.00;;;;;;2268526;61;1017;-89
2021/12/15 23:06:12;304203.00;1.01;525.14;0.00;0.00;0.62;;;;;8.80;1.00;;;;;;2268463;61;1031;-89
2021/12/15 23:08:40;179390.00;0.60;310.44;0.00;0.00;0.62;;;;;9.30;1.00;;;;;;2268473;61;1297;-87
2021/12/15 23:11:20;147895.00;0.49;256.18;0.00;0.00;0.62;;;;;9.90;1.00;;;;;;2261146;61;1043;-89
2021/12/15 23:13:50;76712.00;0.26;133.36;0.00;0.00;0.62;;;;;9.90;1.00;;;;;;2264483;61;1019;-89
2021/12/15 23:16:18;15822.00;0.05;28.03;0.00;0.00;0.62;;;;;10.10;1.00;;;;;;2264455;61;1922;-89
2021/12/15 23:18:45;221319.00;0.74;382.61;19414.00;0.06;34.26;;;;;9.70;1.00;;;;;;2264400;61;1367;-90
2021/12/15 23:21:14;87557.00;0.29;152.09;0.00;0.00;0.62;;;;;9.20;1.00;;;;;;2264509;61;992;-90
2021/12/15 23:23:44;61200.00;0.20;106.55;0.00;0.00;0.62;;;;;9.50;1.00;;;;;;2264381;61;1025;-89
2021/12/15 23:26:12;22172.00;0.07;39.03;0.00;0.00;0.62;;;;;9.70;1.00;;;;;;2264397;61;1021;-88
2021/12/15 23:28:42;0.00;0.00;0.62;0.00;0.00;0.62;;;;;9.90;1.00;;;;;;2261097;61;1327;-89
2021/12/15 23:31:14;49101.00;0.16;85.63;0.00;0.00;0.62;;;;;9.50;1.00;;;;;;2276890;61;915;-89
2021/12/15 23:33:41;34023.00;0.11;59.55;0.00;0.00;0.62;;;;;9.70;1.00;;;;;;2276985;61;906;-90
2021/12/15 23:36:08;40489.00;0.13;70.73;0.00;0.00;0.62;;;;;10.00;1.00;;;;;;2276909;61;1908;-89
2021/12/15 23:38:48;19767.00;0.07;34.87;0.00;0.00;0.62;;;;;10.40;1.00;;;;;;2269782;61;1237;-88
